PWSweather.com
Personal Weather Stations
Station Observations
KKSTOPEK1
South Central , Topeka, KS 66611

South Central Topeka, KS 66611

Lat: 39.03, Lon: -95.71

Elevation: 945

Station Type: Davis Vantage Vue

http://tallgrasspixels.net/wx/wx.html

High Low Average
Temperature 84.6°F29.2°C 67.3°F19.6°C 75.5°F24.2°C
Dew Point 69.0°F20.6°C 62.6°F17.0°C 65.8°F18.8°C
Winds 4.5 mph 7.2 kmh Calm Calm 2.0 mph S3.2 kmh S
Wind Gusts 10.9 mph17.5 kmh -- 5.0 mph8.0 kmh
Humidity 87% 58% 73%
Pressure 29.74 in1007.1 mb 29.65 in1004.1 mb -
Precipitation 0.01 in0.3 mm - -
Hour Temp Dew Point Humidity Winds Wind Gusts Pressure Precip Precip Rate Daily Precip Total
12:00 AM 71.4°F21.9°C 66.0°F18.9°C 83% 3.7 mph SSW6.0 kmh SSW 6.1 mph9.8 kmh 29.65 in1004.1 mb 0.00 in0.0 mm 0.00 in/hr0.0 mm/hr 0.00 in0.0 mm
12:15 AM 71.2°F21.8°C 65.8°F18.8°C 83% 2.5 mph S4.0 kmh S 7.3 mph11.7 kmh 29.65 in1004.1 mb 0.00 in0.0 mm 0.00 in/hr0.0 mm/hr 0.00 in0.0 mm
12:30 AM 71.2°F21.8°C 65.8°F18.8°C 83% 4.5 mph SW7.2 kmh SW 7.3 mph11.7 kmh 29.65 in1004.1 mb 0.00 in0.0 mm 0.00 in/hr0.0 mm/hr 0.00 in0.0 mm
12:45 AM 71.2°F21.8°C 65.5°F18.6°C 82% 3.1 mph SSW5.0 kmh SSW 6.1 mph9.8 kmh 29.65 in1004.1 mb 0.00 in0.0 mm 0.00 in/hr0.0 mm/hr 0.00 in0.0 mm
01:00 AM 71.1°F21.7°C 65.0°F18.3°C 81% 1.6 mph SSW2.6 kmh SSW 4.5 mph7.2 kmh 29.65 in1004.1 mb 0.00 in0.0 mm 0.00 in/hr0.0 mm/hr 0.00 in0.0 mm
01:15 AM 71.1°F21.7°C 64.9°F18.3°C 81% 2.4 mph SSW3.9 kmh SSW 7.3 mph11.7 kmh 29.65 in1004.1 mb 0.00 in0.0 mm 0.00 in/hr0.0 mm/hr 0.00 in0.0 mm
01:30 AM 71.1°F21.7°C 64.9°F18.3°C 81% 3.1 mph S5.0 kmh S 6.1 mph9.8 kmh 29.65 in1004.1 mb 0.00 in0.0 mm 0.00 in/hr0.0 mm/hr 0.00 in0.0 mm
01:45 AM 70.9°F21.6°C 64.4°F18.0°C 80% 3.3 mph SW5.3 kmh SW 7.3 mph11.7 kmh 29.65 in1004.1 mb 0.00 in0.0 mm 0.00 in/hr0.0 mm/hr 0.00 in0.0 mm
02:00 AM 70.9°F21.6°C 64.4°F18.0°C 80% 2.5 mph SSW4.0 kmh SSW 3.9 mph6.3 kmh 29.65 in1004.1 mb 0.00 in0.0 mm 0.00 in/hr0.0 mm/hr 0.00 in0.0 mm
02:15 AM 70.9°F21.6°C 64.4°F18.0°C 80% 4.5 mph WSW7.2 kmh WSW 7.8 mph12.6 kmh 29.65 in1004.1 mb 0.00 in0.0 mm 0.00 in/hr0.0 mm/hr 0.00 in0.0 mm
02:30 AM 70.9°F21.6°C 64.4°F18.0°C 80% 2.4 mph S3.9 kmh S 3.4 mph5.5 kmh 29.65 in1004.1 mb 0.00 in0.0 mm 0.00 in/hr0.0 mm/hr 0.00 in0.0 mm
02:45 AM 70.5°F21.4°C 64.4°F18.0°C 81% 2.5 mph S4.0 kmh S 4.5 mph7.2 kmh 29.65 in1004.1 mb 0.00 in0.0 mm 0.00 in/hr0.0 mm/hr 0.00 in0.0 mm
03:00 AM 70.5°F21.4°C 64.0°F17.8°C 80% 2.4 mph S3.9 kmh S 5.0 mph8.0 kmh 29.65 in1004.1 mb 0.00 in0.0 mm 0.00 in/hr0.0 mm/hr 0.00 in0.0 mm
03:15 AM 70.5°F21.4°C 64.0°F17.8°C 80% 3.7 mph SW6.0 kmh SW 5.0 mph8.0 kmh 29.65 in1004.1 mb 0.00 in0.0 mm 0.00 in/hr0.0 mm/hr 0.00 in0.0 mm
03:30 AM 70.3°F21.3°C 63.9°F17.7°C 80% 2.2 mph SW3.5 kmh SW 7.3 mph11.7 kmh 29.65 in1004.1 mb 0.00 in0.0 mm 0.00 in/hr0.0 mm/hr 0.00 in0.0 mm
03:45 AM 70.3°F21.3°C 63.8°F17.7°C 80% 2.7 mph SSW4.3 kmh SSW 5.0 mph8.0 kmh 29.65 in1004.1 mb 0.00 in0.0 mm 0.00 in/hr0.0 mm/hr 0.00 in0.0 mm
04:00 AM 70.0°F21.1°C 63.5°F17.5°C 80% 1.0 mph SSW1.6 kmh SSW 7.3 mph11.7 kmh 29.65 in1004.1 mb 0.00 in0.0 mm 0.00 in/hr0.0 mm/hr 0.00 in0.0 mm
04:15 AM 69.8°F21.0°C 63.3°F17.4°C 80% 1.1 mph SSW1.8 kmh SSW -- 29.65 in1004.1 mb 0.00 in0.0 mm 0.00 in/hr0.0 mm/hr 0.00 in0.0 mm
04:30 AM 69.6°F20.9°C 63.5°F17.5°C 81% 0.9 mph SE1.4 kmh SE 2.8 mph4.5 kmh 29.65 in1004.1 mb 0.00 in0.0 mm 0.00 in/hr0.0 mm/hr 0.00 in0.0 mm
04:45 AM 69.3°F20.7°C 63.5°F17.5°C 82% 1.7 mph S2.7 kmh S 4.5 mph7.2 kmh 29.68 in1005.1 mb 0.00 in0.0 mm 0.00 in/hr0.0 mm/hr 0.00 in0.0 mm
05:00 AM 68.9°F20.5°C 63.2°F17.3°C 82% Calm Calm -- 29.68 in1005.1 mb 0.00 in0.0 mm 0.00 in/hr0.0 mm/hr 0.00 in0.0 mm
05:15 AM 68.5°F20.3°C 63.2°F17.3°C 83% Calm Calm -- 29.68 in1005.1 mb 0.00 in0.0 mm 0.00 in/hr0.0 mm/hr 0.00 in0.0 mm
05:30 AM 68.0°F20.0°C 63.0°F17.2°C 84% Calm Calm -- 29.68 in1005.1 mb 0.00 in0.0 mm 0.00 in/hr0.0 mm/hr 0.00 in0.0 mm
05:45 AM 67.6°F19.8°C 62.6°F17.0°C 84% Calm Calm -- 29.68 in1005.1 mb 0.00 in0.0 mm 0.00 in/hr0.0 mm/hr 0.00 in0.0 mm
06:00 AM 67.6°F19.8°C 63.0°F17.2°C 85% 0.7 mph SE1.1 kmh SE -- 29.68 in1005.1 mb 0.00 in0.0 mm 0.00 in/hr0.0 mm/hr 0.00 in0.0 mm
06:15 AM 67.6°F19.8°C 63.0°F17.2°C 85% Calm Calm -- 29.71 in1006.1 mb 0.00 in0.0 mm 0.00 in/hr0.0 mm/hr 0.00 in0.0 mm
06:30 AM 67.5°F19.7°C 62.8°F17.1°C 85% Calm Calm -- 29.71 in1006.1 mb 0.00 in0.0 mm 0.00 in/hr0.0 mm/hr 0.00 in0.0 mm
06:45 AM 67.3°F19.6°C 63.0°F17.2°C 86% Calm Calm 3.4 mph5.5 kmh 29.71 in1006.1 mb 0.00 in0.0 mm 0.00 in/hr0.0 mm/hr 0.00 in0.0 mm
07:00 AM 67.5°F19.7°C 63.5°F17.5°C 87% 0.7 mph SE1.1 kmh SE -- 29.71 in1006.1 mb 0.00 in0.0 mm 0.00 in/hr0.0 mm/hr 0.00 in0.0 mm
07:15 AM 67.6°F19.8°C 63.6°F17.6°C 87% Calm Calm -- 29.74 in1007.1 mb 0.00 in0.0 mm 0.00 in/hr0.0 mm/hr 0.00 in0.0 mm
07:30 AM 68.0°F20.0°C 64.0°F17.8°C 87% Calm Calm -- 29.74 in1007.1 mb 0.00 in0.0 mm 0.00 in/hr0.0 mm/hr 0.00 in0.0 mm
07:45 AM 68.5°F20.3°C 64.2°F17.9°C 86% Calm Calm 3.4 mph5.5 kmh 29.74 in1007.1 mb 0.00 in0.0 mm 0.00 in/hr0.0 mm/hr 0.00 in0.0 mm
08:00 AM 69.3°F20.7°C 64.2°F17.9°C 84% 1.8 mph SW2.9 kmh SW 3.9 mph6.3 kmh 29.74 in1007.1 mb 0.00 in0.0 mm 0.00 in/hr0.0 mm/hr 0.00 in0.0 mm
08:15 AM 70.0°F21.1°C 64.6°F18.1°C 83% 2.2 mph SSW3.5 kmh SSW 3.9 mph6.3 kmh 29.74 in1007.1 mb 0.00 in0.0 mm 0.00 in/hr0.0 mm/hr 0.00 in0.0 mm
08:30 AM 70.5°F21.4°C 64.8°F18.2°C 82% 2.4 mph SE3.9 kmh SE 7.8 mph12.6 kmh 29.74 in1007.1 mb 0.00 in0.0 mm 0.00 in/hr0.0 mm/hr 0.00 in0.0 mm
08:45 AM 71.2°F21.8°C 65.1°F18.4°C 81% 2.3 mph S3.7 kmh S 7.3 mph11.7 kmh 29.74 in1007.1 mb 0.00 in0.0 mm 0.00 in/hr0.0 mm/hr 0.00 in0.0 mm
09:00 AM 71.9°F22.2°C 65.4°F18.6°C 80% 3.2 mph S5.1 kmh S 7.3 mph11.7 kmh 29.74 in1007.1 mb 0.00 in0.0 mm 0.00 in/hr0.0 mm/hr 0.00 in0.0 mm
09:15 AM 72.4°F22.4°C 65.2°F18.4°C 78% 3.1 mph SSW5.0 kmh SSW 7.3 mph11.7 kmh 29.74 in1007.1 mb 0.00 in0.0 mm 0.00 in/hr0.0 mm/hr 0.00 in0.0 mm
09:30 AM 73.5°F23.1°C 65.9°F18.8°C 77% 4.0 mph S6.4 kmh S 6.7 mph10.8 kmh 29.74 in1007.1 mb 0.00 in0.0 mm 0.00 in/hr0.0 mm/hr 0.00 in0.0 mm
09:45 AM 74.3°F23.5°C 66.2°F19.0°C 76% 2.5 mph S4.0 kmh S 5.0 mph8.0 kmh 29.74 in1007.1 mb 0.00 in0.0 mm 0.00 in/hr0.0 mm/hr 0.00 in0.0 mm
10:00 AM 74.8°F23.8°C 66.4°F19.1°C 75% 3.9 mph SSW6.3 kmh SSW 6.7 mph10.8 kmh 29.74 in1007.1 mb 0.00 in0.0 mm 0.00 in/hr0.0 mm/hr 0.00 in0.0 mm
10:15 AM 75.7°F24.3°C 66.9°F19.4°C 74% 2.1 mph S3.4 kmh S 6.1 mph9.8 kmh 29.74 in1007.1 mb 0.00 in0.0 mm 0.00 in/hr0.0 mm/hr 0.00 in0.0 mm
10:30 AM 76.3°F24.6°C 66.2°F19.0°C 71% 2.8 mph SSW4.5 kmh SSW 7.3 mph11.7 kmh 29.74 in1007.1 mb 0.00 in0.0 mm 0.00 in/hr0.0 mm/hr 0.00 in0.0 mm
10:45 AM 77.1°F25.1°C 66.9°F19.4°C 71% 3.6 mph SE5.8 kmh SE 6.7 mph10.8 kmh 29.74 in1007.1 mb 0.00 in0.0 mm 0.00 in/hr0.0 mm/hr 0.00 in0.0 mm
11:00 AM 78.1°F25.6°C 67.5°F19.7°C 70% 3.7 mph SSW6.0 kmh SSW 10.9 mph17.5 kmh 29.74 in1007.1 mb 0.00 in0.0 mm 0.00 in/hr0.0 mm/hr 0.00 in0.0 mm
11:15 AM 79.1°F26.2°C 67.6°F19.8°C 68% 3.3 mph SSE5.3 kmh SSE 8.9 mph14.3 kmh 29.74 in1007.1 mb 0.00 in0.0 mm 0.00 in/hr0.0 mm/hr 0.00 in0.0 mm
11:30 AM 80.7°F27.1°C 67.8°F19.9°C 65% 2.8 mph SE4.5 kmh SE 5.0 mph8.0 kmh 29.74 in1007.1 mb 0.00 in0.0 mm 0.00 in/hr0.0 mm/hr 0.00 in0.0 mm
11:45 AM 81.1°F27.3°C 67.3°F19.6°C 63% 3.4 mph SSE5.5 kmh SSE 7.8 mph12.6 kmh 29.74 in1007.1 mb 0.00 in0.0 mm 0.00 in/hr0.0 mm/hr 0.00 in0.0 mm
12:00 PM 81.0°F27.2°C 67.2°F19.6°C 63% 2.9 mph SSW4.7 kmh SSW 5.0 mph8.0 kmh 29.74 in1007.1 mb 0.00 in0.0 mm 0.00 in/hr0.0 mm/hr 0.00 in0.0 mm
12:15 PM 81.6°F27.6°C 67.8°F19.9°C 63% 4.0 mph S6.4 kmh S 10.3 mph16.6 kmh 29.74 in1007.1 mb 0.00 in0.0 mm 0.00 in/hr0.0 mm/hr 0.00 in0.0 mm
12:30 PM 81.7°F27.6°C 67.4°F19.7°C 62% 3.1 mph SW5.0 kmh SW 7.3 mph11.7 kmh 29.74 in1007.1 mb 0.00 in0.0 mm 0.00 in/hr0.0 mm/hr 0.00 in0.0 mm
12:45 PM 82.4°F28.0°C 66.6°F19.2°C 59% 4.4 mph S7.1 kmh S 7.8 mph12.6 kmh 29.74 in1007.1 mb 0.00 in0.0 mm 0.00 in/hr0.0 mm/hr 0.00 in0.0 mm
01:00 PM 81.9°F27.7°C 67.6°F19.8°C 62% 2.7 mph SW4.3 kmh SW 4.5 mph7.2 kmh 29.74 in1007.1 mb 0.00 in0.0 mm 0.00 in/hr0.0 mm/hr 0.00 in0.0 mm
01:15 PM 81.3°F27.4°C 66.6°F19.2°C 61% 1.4 mph SSW2.3 kmh SSW 4.5 mph7.2 kmh 29.74 in1007.1 mb 0.00 in0.0 mm 0.00 in/hr0.0 mm/hr 0.00 in0.0 mm
01:30 PM 79.9°F26.6°C 67.1°F19.5°C 65% 1.5 mph SW2.4 kmh SW 4.5 mph7.2 kmh 29.74 in1007.1 mb 0.00 in0.0 mm 0.00 in/hr0.0 mm/hr 0.00 in0.0 mm
01:45 PM 79.8°F26.6°C 67.0°F19.4°C 65% 3.3 mph SSE5.3 kmh SSE 5.0 mph8.0 kmh 29.74 in1007.1 mb 0.00 in0.0 mm 0.00 in/hr0.0 mm/hr 0.00 in0.0 mm
02:00 PM 79.7°F26.5°C 67.8°F19.9°C 67% 0.9 mph S1.4 kmh S 3.4 mph5.5 kmh 29.74 in1007.1 mb 0.00 in0.0 mm 0.00 in/hr0.0 mm/hr 0.00 in0.0 mm
02:15 PM 80.4°F26.9°C 67.1°F19.5°C 64% 3.2 mph S5.1 kmh S 3.9 mph6.3 kmh 29.74 in1007.1 mb 0.00 in0.0 mm 0.00 in/hr0.0 mm/hr 0.00 in0.0 mm
02:30 PM 81.3°F27.4°C 68.0°F20.0°C 64% 2.4 mph SW3.9 kmh SW 3.9 mph6.3 kmh 29.74 in1007.1 mb 0.00 in0.0 mm 0.00 in/hr0.0 mm/hr 0.00 in0.0 mm
02:45 PM 81.8°F27.7°C 68.0°F20.0°C 63% 2.6 mph S4.2 kmh S 4.5 mph7.2 kmh 29.74 in1007.1 mb 0.00 in0.0 mm 0.00 in/hr0.0 mm/hr 0.00 in0.0 mm
03:00 PM 82.0°F27.8°C 67.7°F19.8°C 62% 3.4 mph SSW5.5 kmh SSW 5.0 mph8.0 kmh 29.74 in1007.1 mb 0.00 in0.0 mm 0.00 in/hr0.0 mm/hr 0.00 in0.0 mm
03:15 PM 82.6°F28.1°C 67.8°F19.9°C 61% 2.7 mph SSE4.3 kmh SSE 5.0 mph8.0 kmh 29.74 in1007.1 mb 0.01 in0.3 mm 0.04 in/hr1.0 mm/hr 0.01 in0.3 mm
03:30 PM 83.1°F28.4°C 67.8°F19.9°C 60% 1.2 mph SSW1.9 kmh SSW 4.5 mph7.2 kmh 29.74 in1007.1 mb 0.00 in0.0 mm 0.00 in/hr0.0 mm/hr 0.01 in0.3 mm
03:45 PM 83.6°F28.7°C 67.8°F19.9°C 59% 3.1 mph SSW5.0 kmh SSW 3.9 mph6.3 kmh 29.71 in1006.1 mb 0.00 in0.0 mm 0.00 in/hr0.0 mm/hr 0.01 in0.3 mm
04:00 PM 84.0°F28.9°C 67.6°F19.8°C 58% 3.7 mph SSW6.0 kmh SSW 5.0 mph8.0 kmh 29.71 in1006.1 mb 0.00 in0.0 mm 0.00 in/hr0.0 mm/hr 0.01 in0.3 mm
04:15 PM 84.4°F29.1°C 68.0°F20.0°C 58% 3.6 mph SW5.8 kmh SW 7.3 mph11.7 kmh 29.71 in1006.1 mb 0.00 in0.0 mm 0.00 in/hr0.0 mm/hr 0.01 in0.3 mm
04:30 PM 84.6°F29.2°C 68.2°F20.1°C 58% 0.7 mph S1.1 kmh S 4.5 mph7.2 kmh 29.71 in1006.1 mb 0.00 in0.0 mm 0.00 in/hr0.0 mm/hr 0.01 in0.3 mm
04:45 PM 84.6°F29.2°C 68.2°F20.1°C 58% 3.4 mph SSE5.5 kmh SSE 6.7 mph10.8 kmh 29.71 in1006.1 mb 0.00 in0.0 mm 0.00 in/hr0.0 mm/hr 0.01 in0.3 mm
05:00 PM 83.2°F28.4°C 67.9°F19.9°C 60% 3.0 mph S4.8 kmh S 6.1 mph9.8 kmh 29.71 in1006.1 mb 0.00 in0.0 mm 0.00 in/hr0.0 mm/hr 0.01 in0.3 mm
05:15 PM 82.8°F28.2°C 67.9°F19.9°C 61% 2.2 mph S3.5 kmh S 6.1 mph9.8 kmh 29.71 in1006.1 mb 0.00 in0.0 mm 0.00 in/hr0.0 mm/hr 0.01 in0.3 mm
05:30 PM 82.6°F28.1°C 68.2°F20.1°C 62% Calm Calm 6.7 mph10.8 kmh 29.71 in1006.1 mb 0.00 in0.0 mm 0.00 in/hr0.0 mm/hr 0.01 in0.3 mm
05:45 PM 82.9°F28.3°C 69.0°F20.6°C 63% Calm Calm 5.0 mph8.0 kmh 29.71 in1006.1 mb 0.00 in0.0 mm 0.00 in/hr0.0 mm/hr 0.01 in0.3 mm
06:00 PM 82.9°F28.3°C 67.6°F19.8°C 60% 4.0 mph SE6.4 kmh SE 7.8 mph12.6 kmh 29.71 in1006.1 mb 0.00 in0.0 mm 0.00 in/hr0.0 mm/hr 0.01 in0.3 mm
06:15 PM 83.1°F28.4°C 67.8°F19.9°C 60% 1.5 mph SE2.4 kmh SE 4.5 mph7.2 kmh 29.71 in1006.1 mb 0.00 in0.0 mm 0.00 in/hr0.0 mm/hr 0.01 in0.3 mm
06:30 PM 83.7°F28.7°C 68.4°F20.2°C 60% 3.1 mph SW5.0 kmh SW 9.5 mph15.3 kmh 29.71 in1006.1 mb 0.00 in0.0 mm 0.00 in/hr0.0 mm/hr 0.01 in0.3 mm
06:45 PM 83.5°F28.6°C 67.6°F19.8°C 59% 1.5 mph S2.4 kmh S 3.9 mph6.3 kmh 29.71 in1006.1 mb 0.00 in0.0 mm 0.00 in/hr0.0 mm/hr 0.01 in0.3 mm
07:00 PM 82.7°F28.2°C 66.9°F19.4°C 59% 3.0 mph SSW4.8 kmh SSW 7.8 mph12.6 kmh 29.71 in1006.1 mb 0.00 in0.0 mm 0.00 in/hr0.0 mm/hr 0.01 in0.3 mm
07:15 PM 82.1°F27.8°C 66.4°F19.1°C 59% 4.4 mph SW7.1 kmh SW 7.8 mph12.6 kmh 29.71 in1006.1 mb 0.00 in0.0 mm 0.00 in/hr0.0 mm/hr 0.01 in0.3 mm
07:30 PM 80.4°F26.9°C 66.7°F19.3°C 63% 1.8 mph S2.9 kmh S 4.5 mph7.2 kmh 29.71 in1006.1 mb 0.00 in0.0 mm 0.00 in/hr0.0 mm/hr 0.01 in0.3 mm
07:45 PM 79.5°F26.4°C 66.7°F19.3°C 65% Calm Calm 2.8 mph4.5 kmh 29.71 in1006.1 mb 0.00 in0.0 mm 0.00 in/hr0.0 mm/hr 0.01 in0.3 mm
08:00 PM 78.8°F26.0°C 67.3°F19.6°C 68% 1.5 mph SSW2.4 kmh SSW 4.5 mph7.2 kmh 29.74 in1007.1 mb 0.00 in0.0 mm 0.00 in/hr0.0 mm/hr 0.01 in0.3 mm
08:15 PM 77.9°F25.5°C 67.7°F19.8°C 71% 1.6 mph S2.6 kmh S 4.5 mph7.2 kmh 29.74 in1007.1 mb 0.00 in0.0 mm 0.00 in/hr0.0 mm/hr 0.01 in0.3 mm
08:30 PM 77.2°F25.1°C 67.5°F19.7°C 72% 1.5 mph SE2.4 kmh SE 6.7 mph10.8 kmh 29.74 in1007.1 mb 0.00 in0.0 mm 0.00 in/hr0.0 mm/hr 0.01 in0.3 mm
08:45 PM 76.6°F24.8°C 67.7°F19.8°C 74% Calm Calm -- 29.74 in1007.1 mb 0.00 in0.0 mm 0.00 in/hr0.0 mm/hr 0.01 in0.3 mm
09:00 PM 76.1°F24.5°C 68.0°F20.0°C 76% 0.4 mph SE0.6 kmh SE 4.5 mph7.2 kmh 29.74 in1007.1 mb 0.00 in0.0 mm 0.00 in/hr0.0 mm/hr 0.01 in0.3 mm
09:15 PM 75.9°F24.4°C 68.2°F20.1°C 77% Calm Calm 3.9 mph6.3 kmh 29.74 in1007.1 mb 0.00 in0.0 mm 0.00 in/hr0.0 mm/hr 0.01 in0.3 mm
09:30 PM 75.7°F24.3°C 68.0°F20.0°C 77% 0.7 mph SE1.1 kmh SE 3.4 mph5.5 kmh 29.74 in1007.1 mb 0.00 in0.0 mm 0.00 in/hr0.0 mm/hr 0.01 in0.3 mm
09:45 PM 75.6°F24.2°C 68.2°F20.1°C 78% Calm Calm 4.5 mph7.2 kmh 29.74 in1007.1 mb 0.00 in0.0 mm 0.00 in/hr0.0 mm/hr 0.01 in0.3 mm
10:00 PM 75.3°F24.1°C 67.9°F19.9°C 78% Calm Calm 3.9 mph6.3 kmh 29.74 in1007.1 mb 0.00 in0.0 mm 0.00 in/hr0.0 mm/hr 0.01 in0.3 mm
10:15 PM 74.7°F23.7°C 67.7°F19.8°C 79% Calm Calm -- 29.77 in1008.1 mb 0.00 in0.0 mm 0.00 in/hr0.0 mm/hr 0.01 in0.3 mm
10:30 PM 73.9°F23.3°C 67.4°F19.7°C 80% Calm Calm 3.4 mph5.5 kmh 29.77 in1008.1 mb 0.00 in0.0 mm 0.00 in/hr0.0 mm/hr 0.01 in0.3 mm
10:45 PM 73.4°F23.0°C 66.9°F19.4°C 80% Calm Calm 3.9 mph6.3 kmh 29.77 in1008.1 mb 0.00 in0.0 mm 0.00 in/hr0.0 mm/hr 0.01 in0.3 mm
11:00 PM 73.2°F22.9°C 67.0°F19.4°C 81% Calm Calm 3.9 mph6.3 kmh 29.77 in1008.1 mb 0.00 in0.0 mm 0.00 in/hr0.0 mm/hr 0.01 in0.3 mm
11:15 PM 73.2°F22.9°C 67.4°F19.7°C 82% Calm Calm -- 29.80 in1009.1 mb 0.00 in0.0 mm 0.00 in/hr0.0 mm/hr 0.01 in0.3 mm
11:30 PM 73.0°F22.8°C 66.8°F19.3°C 81% 2.2 mph SSW3.5 kmh SSW 5.0 mph8.0 kmh 29.80 in1009.1 mb 0.00 in0.0 mm 0.00 in/hr0.0 mm/hr 0.01 in0.3 mm
11:45 PM 72.7°F22.6°C 66.5°F19.2°C 81% 2.9 mph SE4.7 kmh SE 5.0 mph8.0 kmh 29.80 in1009.1 mb 0.00 in0.0 mm 0.00 in/hr0.0 mm/hr 0.01 in0.3 mm